Time;durP1;ratioP1;P1;durP2;ratioP2;P2;SDS_P1;SDS_P2;PMS_P1;PMS_P2;Temp;Humidity;BMP_temperature;BMP_pressure;BME280_temperature;BME280_humidity;BME280_pressure;Samples;Min_cycle;Max_cycle;Signal;HPM_P1;HPM_P2
2022/12/08 00:01:10;;;;;;;6.72;3.40;;;;;;;;;;5062881;28;20059;-71
2022/12/08 00:03:38;;;;;;;5.45;3.17;;;;;;;;;;5050073;28;20097;-71
2022/12/08 00:11:45;;;;;;;7.60;3.78;;;;;;;;;;5020012;28;20049;-72
2022/12/08 00:14:11;;;;;;;5.22;3.65;;;;;;;;;;5020207;28;20050;-71
2022/12/08 00:16:38;;;;;;;6.05;4.15;;;;;;;;;;5012037;28;20505;-71
2022/12/08 00:19:04;;;;;;;11.45;4.45;;;;;;;;;;5008383;28;20045;-71
2022/12/08 00:21:30;;;;;;;8.45;5.18;;;;;;;;;;5020394;28;20575;-70
2022/12/08 00:23:57;;;;;;;8.55;5.18;;;;;;;;;;5020266;28;20050;-71
2022/12/08 00:26:23;;;;;;;12.90;6.85;;;;;;;;;;5021691;28;20440;-70
2022/12/08 00:28:49;;;;;;;15.88;7.20;;;;;;;;;;5017477;28;20057;-72
2022/12/08 00:31:16;;;;;;;7.95;5.00;;;;;;;;;;5019827;28;20056;-71
2022/12/08 00:33:42;;;;;;;5.10;4.38;;;;;;;;;;5019636;28;20057;-71
2022/12/08 00:36:10;;;;;;;7.10;4.75;;;;;;;;;;5018954;28;20104;-70
2022/12/08 00:38:37;;;;;;;8.73;5.82;;;;;;;;;;5020874;28;20068;-70
2022/12/08 00:41:06;;;;;;;10.15;5.70;;;;;;;;;;5020144;28;20132;-71
2022/12/08 00:43:32;;;;;;;6.22;4.40;;;;;;;;;;5020370;28;20416;-70
2022/12/08 00:45:58;;;;;;;8.43;5.07;;;;;;;;;;5040608;28;20581;-70
2022/12/08 00:48:25;;;;;;;7.72;5.70;;;;;;;;;;5063018;28;20049;-70
2022/12/08 00:50:51;;;;;;;7.53;4.50;;;;;;;;;;5065957;28;20045;-70
2022/12/08 00:53:17;;;;;;;7.30;5.63;;;;;;;;;;5073025;28;20053;-70
2022/12/08 00:55:44;;;;;;;7.32;5.93;;;;;;;;;;5057921;28;20045;-70
2022/12/08 00:58:10;;;;;;;9.07;5.95;;;;;;;;;;5052937;28;20041;-70
2022/12/08 01:00:38;;;;;;;9.63;5.80;;;;;;;;;;5043581;28;20169;-69
2022/12/08 01:03:05;;;;;;;11.20;6.82;;;;;;;;;;5045157;28;20050;-70
2022/12/08 01:05:31;;;;;;;10.32;6.18;;;;;;;;;;5053677;28;20132;-70
2022/12/08 01:07:58;;;;;;;13.00;7.65;;;;;;;;;;5052907;28;20049;-70
2022/12/08 01:10:24;;;;;;;16.27;10.98;;;;;;;;;;5059430;28;20115;-70
2022/12/08 01:12:50;;;;;;;10.70;7.95;;;;;;;;;;5043301;28;20060;-70
2022/12/08 01:15:17;;;;;;;12.45;9.80;;;;;;;;;;5059840;28;20049;-70
2022/12/08 01:17:43;;;;;;;9.52;7.00;;;;;;;;;;5046148;28;20076;-71
2022/12/08 01:20:10;;;;;;;8.32;6.25;;;;;;;;;;5041665;28;20128;-70
2022/12/08 01:22:37;;;;;;;9.15;5.55;;;;;;;;;;5061135;28;20138;-71
2022/12/08 01:25:03;;;;;;;8.45;6.20;;;;;;;;;;5047198;28;20056;-70
2022/12/08 01:27:29;;;;;;;7.03;6.03;;;;;;;;;;5058907;28;20049;-70
2022/12/08 01:29:56;;;;;;;7.25;5.82;;;;;;;;;;5083046;28;20623;-70
2022/12/08 01:32:22;;;;;;;7.43;6.13;;;;;;;;;;5050708;28;20049;-70
2022/12/08 01:34:48;;;;;;;6.18;5.57;;;;;;;;;;5059661;28;20060;-70
2022/12/08 01:37:15;;;;;;;6.75;4.82;;;;;;;;;;5046020;28;20041;-70
2022/12/08 01:39:41;;;;;;;5.60;4.32;;;;;;;;;;5073636;28;20049;-72
2022/12/08 01:42:21;;;;;;;6.57;3.30;;;;;;;;;;5042689;28;20077;-70
2022/12/08 01:44:58;;;;;;;5.63;4.30;;;;;;;;;;5044693;28;20107;-70
2022/12/08 01:47:28;;;;;;;5.22;3.75;;;;;;;;;;5056978;28;20060;-71
2022/12/08 01:49:54;;;;;;;5.60;3.25;;;;;;;;;;5061137;28;20049;-70
2022/12/08 01:52:27;;;;;;;3.90;3.33;;;;;;;;;;5061125;28;20051;-70
2022/12/08 01:54:59;;;;;;;4.82;2.65;;;;;;;;;;5062660;28;20562;-71
2022/12/08 01:57:32;;;;;;;5.43;3.80;;;;;;;;;;5061312;28;20215;-70
2022/12/08 02:00:00;;;;;;;5.80;3.00;;;;;;;;;;5063125;28;20057;-70
2022/12/08 02:02:30;;;;;;;3.63;2.40;;;;;;;;;;5064423;28;20053;-70
2022/12/08 02:04:57;;;;;;;2.38;2.03;;;;;;;;;;5061468;28;20164;-70
2022/12/08 02:07:24;;;;;;;2.10;1.85;;;;;;;;;;5065920;28;20061;-69
2022/12/08 02:09:51;;;;;;;3.22;2.10;;;;;;;;;;5065070;28;20057;-69
2022/12/08 02:12:18;;;;;;;2.50;2.25;;;;;;;;;;5048720;28;20083;-70
2022/12/08 02:14:44;;;;;;;2.65;2.13;;;;;;;;;;5046295;28;20145;-70
2022/12/08 02:17:20;;;;;;;2.88;2.60;;;;;;;;;;5051128;28;20045;-71
2022/12/08 02:19:46;;;;;;;;;;;;;;;;;;5066192;28;20060;-70
2022/12/08 02:22:14;;;;;;;3.90;2.88;;;;;;;;;;5064078;28;45027;-71
2022/12/08 02:24:55;;;;;;;7.88;3.03;;;;;;;;;;5056833;28;20096;-70
2022/12/08 02:27:35;;;;;;;4.65;3.28;;;;;;;;;;5062659;28;20412;-69
2022/12/08 02:30:07;;;;;;;3.92;3.47;;;;;;;;;;5048864;28;20100;-70
2022/12/08 02:32:40;;;;;;;5.43;3.97;;;;;;;;;;5062041;28;20565;-70
2022/12/08 02:35:12;;;;;;;6.15;4.47;;;;;;;;;;5066049;28;20088;-69
2022/12/08 02:37:46;;;;;;;8.10;5.32;;;;;;;;;;5052198;28;20632;-71
2022/12/08 02:40:20;;;;;;;8.55;5.13;;;;;;;;;;5056825;28;20106;-71
2022/12/08 02:43:02;;;;;;;9.07;4.93;;;;;;;;;;5048831;28;20053;-69
2022/12/08 02:45:30;;;;;;;7.45;5.20;;;;;;;;;;5061067;28;20061;-70
2022/12/08 02:47:57;;;;;;;6.03;5.43;;;;;;;;;;5066541;28;20087;-70
2022/12/08 02:50:23;;;;;;;7.47;5.85;;;;;;;;;;5065253;28;20076;-70
2022/12/08 02:52:50;;;;;;;6.03;5.43;;;;;;;;;;5052384;28;20053;-70
2022/12/08 02:55:27;;;;;;;10.70;6.50;;;;;;;;;;5050108;28;20064;-70
2022/12/08 02:57:53;;;;;;;10.02;5.80;;;;;;;;;;5061709;28;20515;-69
2022/12/08 03:00:20;;;;;;;10.68;6.97;;;;;;;;;;5048040;28;20345;-70
2022/12/08 03:02:53;;;;;;;8.60;6.07;;;;;;;;;;5064529;28;20430;-70
2022/12/08 03:05:37;;;;;;;9.40;5.70;;;;;;;;;;5047459;28;20064;-70
2022/12/08 03:08:15;;;;;;;9.30;5.28;;;;;;;;;;5048740;28;20052;-70
2022/12/08 03:10:52;;;;;;;8.43;5.30;;;;;;;;;;5064189;28;20056;-71
2022/12/08 03:13:20;;;;;;;6.35;5.47;;;;;;;;;;5063130;28;20588;-69
2022/12/08 03:15:48;;;;;;;7.15;5.35;;;;;;;;;;5064227;28;20053;-71
2022/12/08 03:18:15;;;;;;;6.78;4.95;;;;;;;;;;5064320;28;20053;-71
2022/12/08 03:20:44;;;;;;;6.80;4.97;;;;;;;;;;5063604;28;20045;-70
2022/12/08 03:23:11;;;;;;;7.20;5.18;;;;;;;;;;5066924;28;20056;-70
2022/12/08 03:25:52;;;;;;;7.93;4.85;;;;;;;;;;5057537;28;20140;-71
2022/12/08 03:28:19;;;;;;;8.07;4.80;;;;;;;;;;5046771;28;20551;-70
2022/12/08 03:30:47;;;;;;;6.25;4.65;;;;;;;;;;5052816;28;20523;-71
2022/12/08 03:33:16;;;;;;;7.88;5.25;;;;;;;;;;5049276;28;20532;-70
2022/12/08 03:35:43;;;;;;;6.25;5.32;;;;;;;;;;5044329;28;20056;-71
2022/12/08 03:38:11;;;;;;;8.38;5.45;;;;;;;;;;5045037;28;20053;-71
2022/12/08 03:40:38;;;;;;;6.47;5.22;;;;;;;;;;5060996;28;20045;-71
2022/12/08 03:43:04;;;;;;;6.97;4.70;;;;;;;;;;5064776;28;20052;-72
2022/12/08 03:45:31;;;;;;;6.90;4.65;;;;;;;;;;5060558;28;20529;-71
2022/12/08 03:47:57;;;;;;;6.07;4.10;;;;;;;;;;5044000;28;20053;-72
2022/12/08 03:50:24;;;;;;;5.60;3.92;;;;;;;;;;5043427;28;20491;-70
2022/12/08 03:52:50;;;;;;;6.80;3.50;;;;;;;;;;5055568;28;20506;-71
2022/12/08 03:55:16;;;;;;;5.38;3.05;;;;;;;;;;5057412;28;20057;-70
2022/12/08 03:57:43;;;;;;;5.82;3.30;;;;;;;;;;5054314;28;20041;-71
2022/12/08 04:00:12;;;;;;;5.72;2.97;;;;;;;;;;5056058;28;20045;-72
2022/12/08 04:02:38;;;;;;;5.78;2.78;;;;;;;;;;5064379;28;20052;-70
2022/12/08 04:05:05;;;;;;;5.82;3.30;;;;;;;;;;5063639;28;21058;-71
2022/12/08 04:07:32;;;;;;;3.47;2.40;;;;;;;;;;5047239;28;20496;-70
2022/12/08 04:09:58;;;;;;;4.53;2.60;;;;;;;;;;5047360;28;20091;-70
2022/12/08 04:12:24;;;;;;;4.30;2.60;;;;;;;;;;5061225;28;20523;-70
2022/12/08 04:14:51;;;;;;;5.72;2.97;;;;;;;;;;5062059;28;20059;-72
2022/12/08 04:17:17;;;;;;;6.18;2.70;;;;;;;;;;5044160;28;20058;-70
2022/12/08 04:19:43;;;;;;;4.75;2.10;;;;;;;;;;5043318;28;20133;-70
2022/12/08 04:22:10;;;;;;;3.42;2.00;;;;;;;;;;5056357;28;20534;-69
2022/12/08 04:24:36;;;;;;;1.90;1.70;;;;;;;;;;5063263;28;20096;-71
2022/12/08 04:27:03;;;;;;;3.92;1.48;;;;;;;;;;5044874;28;20166;-70
2022/12/08 04:29:29;;;;;;;2.90;1.38;;;;;;;;;;5053246;28;20148;-71
2022/12/08 04:31:55;;;;;;;4.38;1.80;;;;;;;;;;5056644;28;20049;-70
2022/12/08 04:34:22;;;;;;;2.45;1.50;;;;;;;;;;5062488;28;20495;-70
2022/12/08 04:36:48;;;;;;;1.40;1.20;;;;;;;;;;5052253;28;20518;-71
2022/12/08 04:39:14;;;;;;;2.72;1.10;;;;;;;;;;5043427;28;20049;-70
2022/12/08 04:41:41;;;;;;;2.25;1.13;;;;;;;;;;5061670;28;20063;-71
2022/12/08 04:44:07;;;;;;;5.78;1.50;;;;;;;;;;5062427;28;20507;-70
2022/12/08 04:46:34;;;;;;;4.00;1.58;;;;;;;;;;5061328;28;20052;-70
2022/12/08 04:49:08;;;;;;;2.72;1.50;;;;;;;;;;5064556;28;20053;-70
2022/12/08 04:51:34;;;;;;;1.58;1.33;;;;;;;;;;5065218;28;20439;-71
2022/12/08 04:54:00;;;;;;;1.98;1.42;;;;;;;;;;5043256;28;20053;-69
2022/12/08 04:56:27;;;;;;;1.38;1.27;;;;;;;;;;5057427;28;20051;-69
2022/12/08 04:58:53;;;;;;;1.83;1.10;;;;;;;;;;5057988;28;20049;-70
2022/12/08 05:01:19;;;;;;;3.15;1.95;;;;;;;;;;5043246;28;20053;-70
2022/12/08 05:03:46;;;;;;;2.97;1.85;;;;;;;;;;5060040;28;20056;-70
2022/12/08 05:06:12;;;;;;;2.10;1.90;;;;;;;;;;5046955;28;20056;-70
2022/12/08 05:08:39;;;;;;;5.70;1.95;;;;;;;;;;5061538;28;20063;-70
2022/12/08 05:11:07;;;;;;;4.65;2.10;;;;;;;;;;5060164;28;20064;-71
2022/12/08 05:13:34;;;;;;;4.40;2.35;;;;;;;;;;5062651;28;20500;-70
2022/12/08 05:16:09;;;;;;;3.08;1.92;;;;;;;;;;5056612;28;20063;-70
2022/12/08 05:18:36;;;;;;;2.72;1.50;;;;;;;;;;5052887;28;20049;-70
2022/12/08 05:21:02;;;;;;;1.92;1.70;;;;;;;;;;5042784;28;20508;-70
2022/12/08 05:23:29;;;;;;;1.63;1.38;;;;;;;;;;5054576;28;20049;-71
2022/12/08 05:25:55;;;;;;;3.28;1.50;;;;;;;;;;5053904;28;20053;-70
2022/12/08 05:28:22;;;;;;;2.35;1.42;;;;;;;;;;5062103;28;20538;-70
2022/12/08 05:31:08;;;;;;;4.03;1.60;;;;;;;;;;5065266;28;20052;-70
2022/12/08 05:33:35;;;;;;;1.50;1.40;;;;;;;;;;5056012;28;20054;-70
2022/12/08 05:36:01;;;;;;;4.10;1.60;;;;;;;;;;5042745;28;20060;-70
2022/12/08 05:38:28;;;;;;;2.47;1.30;;;;;;;;;;5042850;28;20060;-70
2022/12/08 05:40:54;;;;;;;2.40;1.00;;;;;;;;;;5055098;28;20053;-70
2022/12/08 05:43:21;;;;;;;2.17;1.23;;;;;;;;;;5052246;28;20056;-71
2022/12/08 05:45:47;;;;;;;2.47;1.30;;;;;;;;;;5043339;28;20520;-71
2022/12/08 05:48:14;;;;;;;2.45;1.10;;;;;;;;;;5048723;28;20207;-70
2022/12/08 05:50:44;;;;;;;2.80;1.13;;;;;;;;;;5064882;28;20098;-71
2022/12/08 05:53:10;;;;;;;1.65;1.35;;;;;;;;;;5056435;28;20093;-71
2022/12/08 05:55:37;;;;;;;2.42;0.88;;;;;;;;;;5061978;28;20073;-71
2022/12/08 05:58:03;;;;;;;1.02;0.93;;;;;;;;;;5055992;28;20663;-71
2022/12/08 06:00:33;;;;;;;1.10;1.00;;;;;;;;;;5044617;28;20794;-71
2022/12/08 06:03:00;;;;;;;2.28;1.05;;;;;;;;;;5044085;28;20057;-70
2022/12/08 06:05:26;;;;;;;1.67;1.45;;;;;;;;;;5057955;28;20083;-72
2022/12/08 06:07:53;;;;;;;3.63;1.40;;;;;;;;;;5053684;28;20048;-70
2022/12/08 06:10:19;;;;;;;1.20;0.90;;;;;;;;;;5054598;28;20283;-71
2022/12/08 06:12:45;;;;;;;2.50;0.95;;;;;;;;;;5059320;28;20867;-70
2022/12/08 06:15:12;;;;;;;1.10;1.00;;;;;;;;;;5062768;28;20151;-70
2022/12/08 06:17:38;;;;;;;2.85;1.50;;;;;;;;;;5043795;28;20057;-70
2022/12/08 06:20:05;;;;;;;2.30;0.90;;;;;;;;;;5043935;28;20057;-70
2022/12/08 06:22:32;;;;;;;2.40;1.15;;;;;;;;;;5056883;28;20049;-71
2022/12/08 06:24:59;;;;;;;3.45;1.33;;;;;;;;;;5060946;28;20056;-69
2022/12/08 06:27:25;;;;;;;1.63;1.20;;;;;;;;;;5047869;28;20048;-70
2022/12/08 06:29:51;;;;;;;3.00;1.08;;;;;;;;;;5061480;28;20106;-71
2022/12/08 06:32:18;;;;;;;1.30;1.20;;;;;;;;;;5058051;28;20535;-71
2022/12/08 06:34:52;;;;;;;2.17;1.00;;;;;;;;;;5046689;28;20095;-70
2022/12/08 06:37:18;;;;;;;2.78;1.05;;;;;;;;;;5062279;28;20057;-69
2022/12/08 06:39:44;;;;;;;2.78;1.30;;;;;;;;;;5081959;28;20559;-69
2022/12/08 06:44:56;;;;;;;3.40;1.10;;;;;;;;;;5056066;28;20107;-70
2022/12/08 06:47:22;;;;;;;1.10;1.00;;;;;;;;;;5061058;28;20127;-70
2022/12/08 06:49:51;;;;;;;1.30;0.70;;;;;;;;;;5059013;28;20053;-70
2022/12/08 06:52:18;;;;;;;1.60;0.88;;;;;;;;;;5064608;28;20068;-71
2022/12/08 06:54:44;;;;;;;2.90;1.00;;;;;;;;;;5073217;28;20055;-71
2022/12/08 06:57:10;;;;;;;5.45;1.02;;;;;;;;;;5074246;28;20075;-70
2022/12/08 06:59:37;;;;;;;3.45;1.00;;;;;;;;;;5063570;28;20569;-70
2022/12/08 07:02:04;;;;;;;1.65;1.05;;;;;;;;;;5050733;28;20057;-70
2022/12/08 07:04:30;;;;;;;3.60;1.58;;;;;;;;;;5059988;28;20358;-70
2022/12/08 07:06:57;;;;;;;4.60;1.02;;;;;;;;;;5064469;28;20524;-70
2022/12/08 07:09:23;;;;;;;1.58;0.73;;;;;;;;;;5062187;28;20134;-69
2022/12/08 07:11:49;;;;;;;2.58;0.68;;;;;;;;;;5071954;28;20059;-71
2022/12/08 07:14:16;;;;;;;1.33;0.60;;;;;;;;;;5063602;28;20538;-69
2022/12/08 07:16:42;;;;;;;1.15;0.73;;;;;;;;;;5065174;28;20438;-69
2022/12/08 07:19:10;;;;;;;1.23;1.13;;;;;;;;;;5055008;28;20108;-69
2022/12/08 07:21:36;;;;;;;3.05;1.15;;;;;;;;;;5057123;28;20522;-69
2022/12/08 07:24:02;;;;;;;1.08;1.00;;;;;;;;;;5064858;28;20041;-69
2022/12/08 07:26:28;;;;;;;1.30;1.20;;;;;;;;;;5064948;28;20097;-68
2022/12/08 07:28:55;;;;;;;2.20;1.30;;;;;;;;;;5062864;28;20107;-70
2022/12/08 07:31:22;;;;;;;3.90;1.58;;;;;;;;;;5059012;28;20053;-69
2022/12/08 07:33:49;;;;;;;5.05;2.25;;;;;;;;;;5068466;28;20076;-68
2022/12/08 07:36:16;;;;;;;2.40;1.95;;;;;;;;;;5061304;28;20136;-70
2022/12/08 07:38:43;;;;;;;6.93;2.90;;;;;;;;;;5065432;28;20088;-68
2022/12/08 07:41:18;;;;;;;3.15;2.65;;;;;;;;;;5089391;28;20049;-69
2022/12/08 07:43:44;;;;;;;3.70;2.70;;;;;;;;;;5071350;28;20057;-70
2022/12/08 07:46:12;;;;;;;3.67;2.88;;;;;;;;;;5076758;28;20053;-68
2022/12/08 07:48:38;;;;;;;4.65;3.30;;;;;;;;;;5071854;28;20052;-70
2022/12/08 07:51:05;;;;;;;8.02;3.28;;;;;;;;;;5060627;28;20128;-69
2022/12/08 07:53:31;;;;;;;5.45;3.20;;;;;;;;;;5053298;28;20057;-70
2022/12/08 07:55:58;;;;;;;5.00;3.65;;;;;;;;;;5045490;28;20535;-69
2022/12/08 07:58:24;;;;;;;4.45;3.20;;;;;;;;;;5049648;28;20503;-71
2022/12/08 08:00:51;;;;;;;5.35;3.65;;;;;;;;;;5050196;28;20091;-70
2022/12/08 08:03:17;;;;;;;6.60;4.05;;;;;;;;;;5058672;28;20625;-69
2022/12/08 08:05:46;;;;;;;7.55;3.58;;;;;;;;;;5060840;28;20053;-69
2022/12/08 08:08:12;;;;;;;7.10;3.45;;;;;;;;;;5056927;28;20076;-69
2022/12/08 08:10:39;;;;;;;4.47;3.15;;;;;;;;;;5067545;28;20057;-70
2022/12/08 08:13:05;;;;;;;3.92;2.75;;;;;;;;;;5079816;28;20056;-71
2022/12/08 08:15:31;;;;;;;3.63;2.42;;;;;;;;;;5063867;28;20646;-68
2022/12/08 08:17:58;;;;;;;2.67;2.25;;;;;;;;;;5054694;28;20049;-70
2022/12/08 08:20:24;;;;;;;3.78;2.40;;;;;;;;;;5051600;28;20856;-71
2022/12/08 08:22:51;;;;;;;3.42;1.90;;;;;;;;;;5059939;28;20495;-70
2022/12/08 08:25:18;;;;;;;2.95;1.98;;;;;;;;;;5060374;28;20288;-70
2022/12/08 08:27:45;;;;;;;4.13;1.95;;;;;;;;;;5044772;28;20132;-70
2022/12/08 08:30:12;;;;;;;3.72;1.92;;;;;;;;;;5064821;28;20056;-71
2022/12/08 08:32:46;;;;;;;1.98;1.63;;;;;;;;;;5065678;28;20053;-70
2022/12/08 08:35:12;;;;;;;1.67;1.30;;;;;;;;;;5053680;28;20056;-69
2022/12/08 08:37:38;;;;;;;2.78;1.70;;;;;;;;;;5050111;28;20060;-69
2022/12/08 08:40:11;;;;;;;2.40;1.50;;;;;;;;;;5080748;28;20049;-70
2022/12/08 08:42:37;;;;;;;1.67;1.33;;;;;;;;;;5075417;28;20053;-69
2022/12/08 08:45:04;;;;;;;3.60;1.70;;;;;;;;;;5058286;28;20426;-69
2022/12/08 08:47:30;;;;;;;3.40;1.42;;;;;;;;;;5073605;28;20556;-69
2022/12/08 08:49:57;;;;;;;1.75;1.27;;;;;;;;;;5064891;28;20053;-69
2022/12/08 08:52:23;;;;;;;2.22;1.50;;;;;;;;;;5075374;28;20112;-69
2022/12/08 08:54:49;;;;;;;2.08;1.55;;;;;;;;;;5059568;28;20086;-69
2022/12/08 08:57:16;;;;;;;2.13;1.50;;;;;;;;;;5062671;28;20045;-70
2022/12/08 08:59:50;;;;;;;2.88;1.48;;;;;;;;;;5066087;28;20053;-69
2022/12/08 09:02:17;;;;;;;2.47;1.40;;;;;;;;;;5068890;28;20049;-70
2022/12/08 09:04:44;;;;;;;1.75;1.55;;;;;;;;;;5062062;28;20077;-70
2022/12/08 09:07:11;;;;;;;2.60;1.45;;;;;;;;;;5063477;28;20602;-70
2022/12/08 09:09:37;;;;;;;2.50;1.45;;;;;;;;;;5061446;28;20061;-68
2022/12/08 09:12:04;;;;;;;2.40;1.40;;;;;;;;;;5051237;28;20480;-69
2022/12/08 09:14:30;;;;;;;2.72;1.48;;;;;;;;;;5056476;28;20059;-70
2022/12/08 09:16:57;;;;;;;3.10;1.60;;;;;;;;;;5046721;28;20072;-71
2022/12/08 09:19:23;;;;;;;2.83;1.58;;;;;;;;;;5054377;28;20857;-70
2022/12/08 09:21:49;;;;;;;2.40;1.48;;;;;;;;;;5045208;28;20049;-70
2022/12/08 09:24:16;;;;;;;2.17;1.40;;;;;;;;;;5051921;28;20581;-69
2022/12/08 09:26:43;;;;;;;1.40;1.30;;;;;;;;;;5061982;28;20079;-70
2022/12/08 09:29:10;;;;;;;1.83;1.30;;;;;;;;;;5058745;28;20057;-70
2022/12/08 09:31:37;;;;;;;1.70;1.33;;;;;;;;;;5068685;28;20135;-69
2022/12/08 09:34:03;;;;;;;3.40;2.00;;;;;;;;;;5050604;28;20465;-70
2022/12/08 09:36:30;;;;;;;7.15;1.50;;;;;;;;;;5043844;28;20053;-71
2022/12/08 09:38:57;;;;;;;1.95;1.30;;;;;;;;;;5050304;28;20076;-69
2022/12/08 09:41:36;;;;;;;3.25;1.50;;;;;;;;;;5047740;28;20057;-70
2022/12/08 09:44:19;;;;;;;1.50;1.40;;;;;;;;;;5057849;28;20132;-70
2022/12/08 09:46:47;;;;;;;1.77;1.50;;;;;;;;;;5067603;28;20049;-70
2022/12/08 09:49:16;;;;;;;2.35;1.58;;;;;;;;;;5062042;28;20060;-70
2022/12/08 09:51:44;;;;;;;2.40;1.98;;;;;;;;;;5061624;28;20064;-70
2022/12/08 09:54:16;;;;;;;2.50;1.70;;;;;;;;;;5072741;28;20053;-70
2022/12/08 09:56:42;;;;;;;2.17;1.10;;;;;;;;;;5043090;28;20135;-69
2022/12/08 09:59:26;;;;;;;1.83;1.40;;;;;;;;;;5058456;28;20057;-69
2022/12/08 10:01:53;;;;;;;2.60;1.40;;;;;;;;;;5049950;28;20072;-71
2022/12/08 10:04:25;;;;;;;1.42;1.30;;;;;;;;;;5050926;28;20538;-70
2022/12/08 10:06:54;;;;;;;1.60;1.50;;;;;;;;;;5061129;28;20084;-70
2022/12/08 10:09:35;;;;;;;1.70;1.30;;;;;;;;;;5066824;28;20053;-71
2022/12/08 10:12:07;;;;;;;1.90;1.50;;;;;;;;;;5042216;28;20168;-69
2022/12/08 10:14:44;;;;;;;3.67;1.70;;;;;;;;;;5059787;28;20549;-71
2022/12/08 10:17:16;;;;;;;2.05;1.70;;;;;;;;;;5064920;28;20563;-71
2022/12/08 10:19:44;;;;;;;4.15;2.05;;;;;;;;;;5063353;28;20063;-71
2022/12/08 10:22:21;;;;;;;4.40;1.42;;;;;;;;;;5064680;28;20100;-71
2022/12/08 10:24:51;;;;;;;2.92;1.45;;;;;;;;;;5055871;28;20049;-70
2022/12/08 10:27:18;;;;;;;3.15;1.45;;;;;;;;;;5053333;28;20787;-70
2022/12/08 10:29:44;;;;;;;1.92;1.42;;;;;;;;;;5057771;28;20053;-71
2022/12/08 10:32:37;;;;;;;5.32;1.10;;;;;;;;;;5060622;28;20053;-71
2022/12/08 10:35:03;;;;;;;1.88;1.30;;;;;;;;;;5072992;28;20052;-71
2022/12/08 10:37:30;;;;;;;2.10;1.40;;;;;;;;;;5073797;28;20057;-70
2022/12/08 10:40:00;;;;;;;1.52;1.25;;;;;;;;;;5059034;28;20140;-71
2022/12/08 10:42:32;;;;;;;4.82;1.20;;;;;;;;;;5059861;28;20057;-71
2022/12/08 10:45:02;;;;;;;1.38;1.20;;;;;;;;;;5066446;28;20419;-70
2022/12/08 10:47:29;;;;;;;1.92;1.30;;;;;;;;;;5084168;28;20545;-70
2022/12/08 10:50:14;;;;;;;1.95;1.75;;;;;;;;;;5079398;28;20058;-71
2022/12/08 10:52:41;;;;;;;2.08;1.33;;;;;;;;;;5053945;28;20136;-72
2022/12/08 10:55:17;;;;;;;1.98;1.10;;;;;;;;;;5068910;28;20524;-72
2022/12/08 10:57:44;;;;;;;1.02;0.93;;;;;;;;;;5057152;28;20431;-71
2022/12/08 11:00:14;;;;;;;1.67;1.20;;;;;;;;;;5069086;28;20499;-70
2022/12/08 11:03:01;;;;;;;1.50;0.90;;;;;;;;;;5072888;28;20052;-70
2022/12/08 11:05:27;;;;;;;;;;;;;;;;;;5084835;28;20140;-71
2022/12/08 11:07:54;;;;;;;0.80;0.65;;;;;;;;;;5060232;28;44584;-70
2022/12/08 11:10:27;;;;;;;2.13;1.10;;;;;;;;;;5058429;28;20087;-70
2022/12/08 11:12:56;;;;;;;2.53;1.38;;;;;;;;;;5079702;28;20078;-69
2022/12/08 11:15:23;;;;;;;4.90;1.70;;;;;;;;;;5071508;28;20885;-71
2022/12/08 11:17:58;;;;;;;2.80;1.48;;;;;;;;;;5075289;28;20053;-71
2022/12/08 11:20:25;;;;;;;3.30;1.52;;;;;;;;;;5067962;28;20435;-70
2022/12/08 11:22:52;;;;;;;2.20;1.48;;;;;;;;;;5070329;28;20059;-70
2022/12/08 11:25:26;;;;;;;2.65;1.50;;;;;;;;;;5072016;28;20515;-71
2022/12/08 11:27:55;;;;;;;1.83;1.30;;;;;;;;;;5064668;28;20388;-71
2022/12/08 11:30:23;;;;;;;1.77;1.48;;;;;;;;;;5064961;28;20446;-70
2022/12/08 11:32:54;;;;;;;3.17;1.17;;;;;;;;;;5063484;28;20069;-72
2022/12/08 11:35:20;;;;;;;2.80;1.25;;;;;;;;;;5071344;28;20118;-70
2022/12/08 11:37:47;;;;;;;1.98;1.33;;;;;;;;;;5071117;28;20051;-70
2022/12/08 11:40:19;;;;;;;2.45;1.38;;;;;;;;;;5068250;28;20051;-69
2022/12/08 11:42:53;;;;;;;1.40;1.30;;;;;;;;;;5072941;28;20053;-70
2022/12/08 11:45:23;;;;;;;2.05;1.48;;;;;;;;;;5075355;28;20550;-69
2022/12/08 11:47:54;;;;;;;1.52;1.42;;;;;;;;;;5045714;28;20056;-71
2022/12/08 11:50:24;;;;;;;1.65;1.40;;;;;;;;;;5061332;28;20122;-70
2022/12/08 11:52:50;;;;;;;2.42;2.03;;;;;;;;;;5046038;28;20049;-69
2022/12/08 11:55:38;;;;;;;3.22;1.40;;;;;;;;;;5053961;28;20053;-69
2022/12/08 11:58:10;;;;;;;2.55;1.70;;;;;;;;;;5060426;28;20493;-69
2022/12/08 12:00:37;;;;;;;2.70;1.50;;;;;;;;;;5069581;28;20064;-69
2022/12/08 12:03:19;;;;;;;1.77;1.20;;;;;;;;;;5061041;28;20066;-69
2022/12/08 12:05:55;;;;;;;2.92;1.70;;;;;;;;;;5071323;28;20060;-70
2022/12/08 12:08:41;;;;;;;1.73;1.60;;;;;;;;;;5064772;28;20049;-70
2022/12/08 12:14:22;;;;;;;4.00;1.40;;;;;;;;;;5059277;28;20053;-69
2022/12/08 12:16:57;;;;;;;2.53;1.42;;;;;;;;;;5067581;28;20049;-69
2022/12/08 12:19:24;;;;;;;2.00;1.80;;;;;;;;;;5063840;28;20092;-70
2022/12/08 12:21:53;;;;;;;4.60;2.13;;;;;;;;;;5063523;28;20045;-69
2022/12/08 12:24:25;;;;;;;5.72;3.55;;;;;;;;;;5063440;28;20503;-69
2022/12/08 12:27:03;;;;;;;5.40;3.45;;;;;;;;;;5060712;28;20080;-70
2022/12/08 12:29:32;;;;;;;2.67;1.95;;;;;;;;;;5050316;28;20359;-69
2022/12/08 12:32:01;;;;;;;8.68;3.55;;;;;;;;;;5066084;28;20053;-69
2022/12/08 12:34:32;;;;;;;3.03;2.28;;;;;;;;;;5082591;28;20059;-69
2022/12/08 12:37:18;;;;;;;1.63;1.52;;;;;;;;;;5083537;28;20473;-70
2022/12/08 12:39:53;;;;;;;3.75;2.35;;;;;;;;;;5061446;28;20132;-70
2022/12/08 12:42:40;;;;;;;4.55;2.17;;;;;;;;;;5078524;28;20048;-69
2022/12/08 12:45:14;;;;;;;2.38;1.88;;;;;;;;;;5065820;28;20048;-69
2022/12/08 12:47:57;;;;;;;2.85;2.05;;;;;;;;;;5068941;28;20049;-70
2022/12/08 12:50:33;;;;;;;3.55;1.95;;;;;;;;;;5066872;28;20617;-70
2022/12/08 12:53:14;;;;;;;3.13;2.08;;;;;;;;;;5064024;28;20060;-71
2022/12/08 12:55:44;;;;;;;1.80;1.63;;;;;;;;;;5065015;28;20076;-70
2022/12/08 12:58:28;;;;;;;3.00;1.90;;;;;;;;;;5059588;28;20602;-70
2022/12/08 13:01:07;;;;;;;3.40;1.90;;;;;;;;;;5059003;28;20543;-69
2022/12/08 13:03:33;;;;;;;2.05;1.85;;;;;;;;;;5071769;28;20127;-70
2022/12/08 13:06:00;;;;;;;3.60;2.28;;;;;;;;;;5068775;28;20183;-69
2022/12/08 13:08:26;;;;;;;2.58;2.13;;;;;;;;;;5058057;28;20154;-69
2022/12/08 13:11:01;;;;;;;2.50;2.17;;;;;;;;;;5056141;28;20049;-70
2022/12/08 13:13:28;;;;;;;2.92;2.55;;;;;;;;;;5070868;28;20146;-70
2022/12/08 13:15:56;;;;;;;2.80;2.20;;;;;;;;;;5075708;28;20048;-70
2022/12/08 13:18:25;;;;;;;2.50;2.22;;;;;;;;;;5083611;28;20499;-70
2022/12/08 13:20:53;;;;;;;3.00;2.60;;;;;;;;;;5055232;28;20049;-71
2022/12/08 13:23:28;;;;;;;3.10;2.42;;;;;;;;;;5072948;28;20103;-70
2022/12/08 13:26:15;;;;;;;3.22;2.33;;;;;;;;;;5065648;28;20427;-71
2022/12/08 13:29:03;;;;;;;2.08;1.80;;;;;;;;;;5061709;28;20574;-71
2022/12/08 13:31:35;;;;;;;3.88;1.98;;;;;;;;;;5062315;28;20053;-70
2022/12/08 13:34:20;;;;;;;2.55;1.55;;;;;;;;;;5063248;28;20067;-70
2022/12/08 13:36:46;;;;;;;5.10;4.13;;;;;;;;;;5048475;28;20140;-70
2022/12/08 13:39:18;;;;;;;6.00;4.47;;;;;;;;;;5048552;28;20045;-71
2022/12/08 13:41:49;;;;;;;11.45;9.38;;;;;;;;;;5072424;28;20045;-71
2022/12/08 13:44:22;;;;;;;29.83;24.45;;;;;;;;;;5058491;28;20561;-71
2022/12/08 13:47:13;;;;;;;7.55;5.95;;;;;;;;;;5062977;28;20509;-70
2022/12/08 13:50:19;;;;;;;4.03;3.42;;;;;;;;;;5065710;28;20134;-70
2022/12/08 13:53:12;;;;;;;3.28;2.20;;;;;;;;;;5057581;28;20533;-71
2022/12/08 13:55:59;;;;;;;2.17;1.98;;;;;;;;;;5067699;28;20064;-70
2022/12/08 13:58:45;;;;;;;2.03;1.63;;;;;;;;;;5065789;28;20507;-71
2022/12/08 14:01:14;;;;;;;3.20;2.90;;;;;;;;;;5070367;28;20049;-70
2022/12/08 14:03:43;;;;;;;2.85;2.50;;;;;;;;;;5087835;28;20057;-71
2022/12/08 14:06:34;;;;;;;2.50;2.30;;;;;;;;;;5085783;28;20106;-71
2022/12/08 14:09:04;;;;;;;2.80;2.17;;;;;;;;;;5082567;28;20107;-70
2022/12/08 14:11:42;;;;;;;2.60;2.40;;;;;;;;;;5060904;28;20510;-72
2022/12/08 14:14:22;;;;;;;5.00;2.90;;;;;;;;;;5063159;28;20567;-71
2022/12/08 14:17:10;;;;;;;5.15;2.92;;;;;;;;;;5064680;28;20069;-71
2022/12/08 14:19:37;;;;;;;6.40;3.13;;;;;;;;;;5047674;28;20107;-70
2022/12/08 14:22:15;;;;;;;4.10;3.72;;;;;;;;;;5063373;28;20195;-72
2022/12/08 14:24:45;;;;;;;6.28;5.68;;;;;;;;;;5068324;28;20552;-71
2022/12/08 14:27:22;;;;;;;8.43;2.97;;;;;;;;;;5068806;28;20589;-70
2022/12/08 14:29:51;;;;;;;4.07;3.60;;;;;;;;;;5081227;28;20053;-70
2022/12/08 14:32:31;;;;;;;3.53;2.55;;;;;;;;;;5069681;28;20577;-70
2022/12/08 14:34:58;;;;;;;4.60;2.78;;;;;;;;;;5074294;28;20050;-69
2022/12/08 14:37:25;;;;;;;3.25;2.42;;;;;;;;;;5083164;28;20546;-70
2022/12/08 14:39:55;;;;;;;6.55;2.97;;;;;;;;;;5052656;28;20053;-70
2022/12/08 14:42:23;;;;;;;6.18;3.28;;;;;;;;;;5061846;28;20128;-70
2022/12/08 14:45:16;;;;;;;6.18;4.07;;;;;;;;;;5074082;28;20097;-69
2022/12/08 14:47:42;;;;;;;7.28;3.33;;;;;;;;;;5057402;28;20597;-71
2022/12/08 14:50:27;;;;;;;4.50;3.70;;;;;;;;;;5064248;28;20548;-72
2022/12/08 14:52:54;;;;;;;5.07;3.93;;;;;;;;;;5054394;28;20504;-71
2022/12/08 14:55:20;;;;;;;4.88;3.90;;;;;;;;;;5056849;28;20060;-72
2022/12/08 14:57:47;;;;;;;5.20;3.50;;;;;;;;;;5077358;28;20594;-71
2022/12/08 15:00:20;;;;;;;4.45;3.88;;;;;;;;;;5055358;28;20050;-70
2022/12/08 15:02:47;;;;;;;3.65;3.25;;;;;;;;;;5056088;28;20513;-69
2022/12/08 15:05:17;;;;;;;5.18;3.42;;;;;;;;;;5070156;28;20044;-71
2022/12/08 15:07:46;;;;;;;4.65;4.18;;;;;;;;;;5084149;28;20052;-70
2022/12/08 15:10:15;;;;;;;5.35;3.95;;;;;;;;;;5070349;28;20052;-70